sensor_id;sensor_type;location;lat;lon;timestamp;P1;durP1;ratioP1;P2;durP2;ratioP2
3267;SDS011;1646;52.450;13.326;2022-09-12T00:01:31;2.97;;;2.63;;
3267;SDS011;1646;52.450;13.326;2022-09-12T00:06:30;3.83;;;3.43;;
3267;SDS011;1646;52.450;13.326;2022-09-12T00:11:33;3.00;;;2.70;;
3267;SDS011;1646;52.450;13.326;2022-09-12T00:16:33;2.77;;;2.57;;
3267;SDS011;1646;52.450;13.326;2022-09-12T00:21:32;3.63;;;3.33;;
3267;SDS011;1646;52.450;13.326;2022-09-12T00:26:33;3.30;;;3.00;;
3267;SDS011;1646;52.450;13.326;2022-09-12T00:31:31;5.47;;;3.63;;
3267;SDS011;1646;52.450;13.326;2022-09-12T00:36:29;4.43;;;3.43;;
3267;SDS011;1646;52.450;13.326;2022-09-12T00:41:28;4.27;;;3.17;;
3267;SDS011;1646;52.450;13.326;2022-09-12T00:46:31;5.83;;;3.10;;
3267;SDS011;1646;52.450;13.326;2022-09-12T00:51:33;3.73;;;3.43;;
3267;SDS011;1646;52.450;13.326;2022-09-12T00:56:33;3.10;;;2.90;;
3267;SDS011;1646;52.450;13.326;2022-09-12T01:01:34;2.60;;;2.40;;
3267;SDS011;1646;52.450;13.326;2022-09-12T01:06:33;3.50;;;2.67;;
3267;SDS011;1646;52.450;13.326;2022-09-12T01:11:33;3.40;;;3.03;;
3267;SDS011;1646;52.450;13.326;2022-09-12T01:16:36;3.33;;;3.03;;
3267;SDS011;1646;52.450;13.326;2022-09-12T01:21:35;6.30;;;3.43;;
3267;SDS011;1646;52.450;13.326;2022-09-12T01:32:40;3.40;;;2.90;;
3267;SDS011;1646;52.450;13.326;2022-09-12T01:37:47;5.13;;;3.40;;
3267;SDS011;1646;52.450;13.326;2022-09-12T01:43:03;3.70;;;3.43;;
3267;SDS011;1646;52.450;13.326;2022-09-12T01:48:17;3.90;;;3.60;;
3267;SDS011;1646;52.450;13.326;2022-09-12T01:53:19;3.80;;;3.50;;
3267;SDS011;1646;52.450;13.326;2022-09-12T01:58:20;3.90;;;3.60;;
3267;SDS011;1646;52.450;13.326;2022-09-12T02:03:24;4.80;;;3.40;;
3267;SDS011;1646;52.450;13.326;2022-09-12T02:08:27;3.57;;;3.30;;
3267;SDS011;1646;52.450;13.326;2022-09-12T02:13:31;4.97;;;3.80;;
3267;SDS011;1646;52.450;13.326;2022-09-12T02:18:35;3.40;;;3.20;;
3267;SDS011;1646;52.450;13.326;2022-09-12T02:23:37;6.43;;;3.90;;
3267;SDS011;1646;52.450;13.326;2022-09-12T02:28:40;3.73;;;3.43;;
3267;SDS011;1646;52.450;13.326;2022-09-12T02:33:43;4.20;;;3.50;;
3267;SDS011;1646;52.450;13.326;2022-09-12T02:38:45;4.47;;;3.40;;
3267;SDS011;1646;52.450;13.326;2022-09-12T02:43:45;5.90;;;3.50;;
3267;SDS011;1646;52.450;13.326;2022-09-12T02:48:44;4.07;;;3.73;;
3267;SDS011;1646;52.450;13.326;2022-09-12T02:53:42;3.50;;;3.20;;
3267;SDS011;1646;52.450;13.326;2022-09-12T02:58:41;3.50;;;3.13;;
3267;SDS011;1646;52.450;13.326;2022-09-12T03:03:46;3.80;;;3.50;;
3267;SDS011;1646;52.450;13.326;2022-09-12T03:08:57;3.80;;;3.50;;
3267;SDS011;1646;52.450;13.326;2022-09-12T03:14:05;3.93;;;3.63;;
3267;SDS011;1646;52.450;13.326;2022-09-12T03:19:18;3.77;;;3.23;;
3267;SDS011;1646;52.450;13.326;2022-09-12T03:24:23;4.67;;;4.13;;
3267;SDS011;1646;52.450;13.326;2022-09-12T03:29:27;3.90;;;3.60;;
3267;SDS011;1646;52.450;13.326;2022-09-12T03:34:28;4.00;;;3.70;;
3267;SDS011;1646;52.450;13.326;2022-09-12T03:39:26;3.50;;;3.20;;
3267;SDS011;1646;52.450;13.326;2022-09-12T03:44:24;3.27;;;3.07;;
3267;SDS011;1646;52.450;13.326;2022-09-12T03:49:22;3.40;;;3.20;;
3267;SDS011;1646;52.450;13.326;2022-09-12T03:54:22;3.50;;;3.20;;
3267;SDS011;1646;52.450;13.326;2022-09-12T03:59:20;3.73;;;3.50;;
3267;SDS011;1646;52.450;13.326;2022-09-12T04:04:17;5.50;;;3.67;;
3267;SDS011;1646;52.450;13.326;2022-09-12T04:09:15;4.20;;;3.90;;
3267;SDS011;1646;52.450;13.326;2022-09-12T04:14:15;4.50;;;4.13;;
3267;SDS011;1646;52.450;13.326;2022-09-12T04:19:13;4.37;;;4.00;;
3267;SDS011;1646;52.450;13.326;2022-09-12T04:24:11;4.70;;;4.30;;
3267;SDS011;1646;52.450;13.326;2022-09-12T04:29:09;4.93;;;4.53;;
3267;SDS011;1646;52.450;13.326;2022-09-12T04:34:09;7.00;;;4.50;;
3267;SDS011;1646;52.450;13.326;2022-09-12T04:39:09;5.10;;;4.53;;
3267;SDS011;1646;52.450;13.326;2022-09-12T04:44:09;5.10;;;4.60;;
3267;SDS011;1646;52.450;13.326;2022-09-12T04:49:10;8.47;;;4.63;;
3267;SDS011;1646;52.450;13.326;2022-09-12T04:54:09;4.60;;;4.27;;
3267;SDS011;1646;52.450;13.326;2022-09-12T04:59:10;5.20;;;4.80;;
3267;SDS011;1646;52.450;13.326;2022-09-12T05:04:11;4.73;;;4.03;;
3267;SDS011;1646;52.450;13.326;2022-09-12T05:09:09;5.50;;;4.60;;
3267;SDS011;1646;52.450;13.326;2022-09-12T05:14:09;9.30;;;5.30;;
3267;SDS011;1646;52.450;13.326;2022-09-12T05:19:08;4.60;;;4.20;;
3267;SDS011;1646;52.450;13.326;2022-09-12T05:24:08;5.70;;;5.20;;
3267;SDS011;1646;52.450;13.326;2022-09-12T05:29:07;7.00;;;5.20;;
3267;SDS011;1646;52.450;13.326;2022-09-12T05:34:05;5.43;;;4.93;;
3267;SDS011;1646;52.450;13.326;2022-09-12T05:39:06;6.97;;;5.47;;
3267;SDS011;1646;52.450;13.326;2022-09-12T05:44:05;6.10;;;5.50;;
3267;SDS011;1646;52.450;13.326;2022-09-12T05:49:08;7.03;;;5.60;;
3267;SDS011;1646;52.450;13.326;2022-09-12T05:54:10;5.90;;;5.33;;
3267;SDS011;1646;52.450;13.326;2022-09-12T05:59:10;6.27;;;5.67;;
3267;SDS011;1646;52.450;13.326;2022-09-12T06:04:10;5.90;;;5.40;;
3267;SDS011;1646;52.450;13.326;2022-09-12T06:09:09;6.20;;;5.50;;
3267;SDS011;1646;52.450;13.326;2022-09-12T06:14:09;6.10;;;5.50;;
3267;SDS011;1646;52.450;13.326;2022-09-12T06:19:11;5.47;;;4.63;;
3267;SDS011;1646;52.450;13.326;2022-09-12T06:24:12;4.67;;;4.27;;
3267;SDS011;1646;52.450;13.326;2022-09-12T06:29:10;5.27;;;4.77;;
3267;SDS011;1646;52.450;13.326;2022-09-12T06:34:09;5.20;;;4.70;;
3267;SDS011;1646;52.450;13.326;2022-09-12T06:39:10;5.47;;;4.90;;
3267;SDS011;1646;52.450;13.326;2022-09-12T06:44:11;5.40;;;5.00;;
3267;SDS011;1646;52.450;13.326;2022-09-12T06:49:11;5.20;;;4.50;;
3267;SDS011;1646;52.450;13.326;2022-09-12T06:54:11;4.37;;;3.97;;
3267;SDS011;1646;52.450;13.326;2022-09-12T06:59:10;5.10;;;4.07;;
3267;SDS011;1646;52.450;13.326;2022-09-12T07:04:08;5.63;;;5.13;;
3267;SDS011;1646;52.450;13.326;2022-09-12T07:09:09;4.63;;;4.13;;
3267;SDS011;1646;52.450;13.326;2022-09-12T07:14:09;4.80;;;4.30;;
3267;SDS011;1646;52.450;13.326;2022-09-12T07:19:10;5.60;;;4.23;;
3267;SDS011;1646;52.450;13.326;2022-09-12T07:24:08;5.53;;;4.00;;
3267;SDS011;1646;52.450;13.326;2022-09-12T07:29:08;4.00;;;3.70;;
3267;SDS011;1646;52.450;13.326;2022-09-12T07:34:32;4.57;;;3.63;;
3267;SDS011;1646;52.450;13.326;2022-09-12T07:39:30;6.00;;;3.53;;
3267;SDS011;1646;52.450;13.326;2022-09-12T07:44:30;4.07;;;3.20;;
3267;SDS011;1646;52.450;13.326;2022-09-12T07:49:28;3.37;;;3.07;;
3267;SDS011;1646;52.450;13.326;2022-09-12T07:54:26;3.67;;;2.80;;
3267;SDS011;1646;52.450;13.326;2022-09-12T07:59:24;3.00;;;2.17;;
3267;SDS011;1646;52.450;13.326;2022-09-12T08:04:45;2.43;;;2.30;;
3267;SDS011;1646;52.450;13.326;2022-09-12T08:09:43;3.30;;;3.00;;
3267;SDS011;1646;52.450;13.326;2022-09-12T08:14:41;2.73;;;2.53;;
3267;SDS011;1646;52.450;13.326;2022-09-12T08:19:39;2.67;;;2.47;;
3267;SDS011;1646;52.450;13.326;2022-09-12T08:24:39;2.60;;;2.40;;
3267;SDS011;1646;52.450;13.326;2022-09-12T08:29:37;2.87;;;1.90;;
3267;SDS011;1646;52.450;13.326;2022-09-12T08:34:35;3.83;;;2.27;;
3267;SDS011;1646;52.450;13.326;2022-09-12T08:39:33;3.23;;;1.63;;
3267;SDS011;1646;52.450;13.326;2022-09-12T08:44:38;2.30;;;2.10;;
3267;SDS011;1646;52.450;13.326;2022-09-12T08:49:49;2.00;;;1.57;;
3267;SDS011;1646;52.450;13.326;2022-09-12T08:55:02;3.53;;;1.97;;
3267;SDS011;1646;52.450;13.326;2022-09-12T09:00:05;19.10;;;2.70;;
3267;SDS011;1646;52.450;13.326;2022-09-12T09:05:11;8.73;;;2.10;;
3267;SDS011;1646;52.450;13.326;2022-09-12T09:10:17;4.97;;;2.80;;
3267;SDS011;1646;52.450;13.326;2022-09-12T09:15:29;3.90;;;2.10;;
3267;SDS011;1646;52.450;13.326;2022-09-12T09:20:37;1.87;;;1.70;;
3267;SDS011;1646;52.450;13.326;2022-09-12T09:25:41;5.77;;;1.70;;
3267;SDS011;1646;52.450;13.326;2022-09-12T09:30:47;10.43;;;2.67;;
3267;SDS011;1646;52.450;13.326;2022-09-12T09:35:46;1.97;;;1.40;;
3267;SDS011;1646;52.450;13.326;2022-09-12T09:40:49;3.53;;;1.97;;
3267;SDS011;1646;52.450;13.326;2022-09-12T09:46:05;1.60;;;1.50;;
3267;SDS011;1646;52.450;13.326;2022-09-12T09:51:03;6.23;;;1.70;;
3267;SDS011;1646;52.450;13.326;2022-09-12T09:56:06;1.90;;;1.40;;
3267;SDS011;1646;52.450;13.326;2022-09-12T10:01:13;1.73;;;1.30;;
3267;SDS011;1646;52.450;13.326;2022-09-12T10:06:20;3.40;;;1.13;;
3267;SDS011;1646;52.450;13.326;2022-09-12T10:11:26;2.00;;;1.50;;
3267;SDS011;1646;52.450;13.326;2022-09-12T10:16:27;2.63;;;1.23;;
3267;SDS011;1646;52.450;13.326;2022-09-12T10:21:28;3.00;;;1.57;;
3267;SDS011;1646;52.450;13.326;2022-09-12T10:26:31;1.80;;;0.97;;
3267;SDS011;1646;52.450;13.326;2022-09-12T10:31:35;2.60;;;1.20;;
3267;SDS011;1646;52.450;13.326;2022-09-12T10:36:39;2.20;;;1.27;;
3267;SDS011;1646;52.450;13.326;2022-09-12T10:41:38;3.80;;;1.17;;
3267;SDS011;1646;52.450;13.326;2022-09-12T10:46:39;1.50;;;1.03;;
3267;SDS011;1646;52.450;13.326;2022-09-12T10:51:37;1.30;;;1.00;;
3267;SDS011;1646;52.450;13.326;2022-09-12T10:56:36;1.67;;;1.27;;
3267;SDS011;1646;52.450;13.326;2022-09-12T11:01:40;3.77;;;1.60;;
3267;SDS011;1646;52.450;13.326;2022-09-12T11:06:41;2.20;;;1.00;;
3267;SDS011;1646;52.450;13.326;2022-09-12T11:11:52;5.40;;;1.30;;
3267;SDS011;1646;52.450;13.326;2022-09-12T11:17:03;1.20;;;1.03;;
3267;SDS011;1646;52.450;13.326;2022-09-12T11:22:13;1.43;;;1.03;;
3267;SDS011;1646;52.450;13.326;2022-09-12T11:27:31;1.27;;;1.17;;
3267;SDS011;1646;52.450;13.326;2022-09-12T11:38:13;1.10;;;0.97;;
3267;SDS011;1646;52.450;13.326;2022-09-12T11:43:28;1.60;;;1.10;;
3267;SDS011;1646;52.450;13.326;2022-09-12T11:48:36;2.03;;;1.10;;
3267;SDS011;1646;52.450;13.326;2022-09-12T11:53:40;1.77;;;1.00;;
3267;SDS011;1646;52.450;13.326;2022-09-12T11:58:40;29.47;;;2.77;;
3267;SDS011;1646;52.450;13.326;2022-09-12T12:03:42;1.40;;;0.90;;
3267;SDS011;1646;52.450;13.326;2022-09-12T12:08:42;1.00;;;0.90;;
3267;SDS011;1646;52.450;13.326;2022-09-12T12:13:44;1.67;;;0.90;;
3267;SDS011;1646;52.450;13.326;2022-09-12T12:18:51;2.30;;;0.97;;
3267;SDS011;1646;52.450;13.326;2022-09-12T12:24:10;1.97;;;0.80;;
3267;SDS011;1646;52.450;13.326;2022-09-12T12:29:19;1.43;;;1.13;;
3267;SDS011;1646;52.450;13.326;2022-09-12T12:34:42;1.67;;;1.23;;
3267;SDS011;1646;52.450;13.326;2022-09-12T12:39:54;1.43;;;1.00;;
3267;SDS011;1646;52.450;13.326;2022-09-12T12:44:56;2.00;;;0.90;;
3267;SDS011;1646;52.450;13.326;2022-09-12T12:49:56;0.80;;;0.80;;
3267;SDS011;1646;52.450;13.326;2022-09-12T12:54:57;1.77;;;0.90;;
3267;SDS011;1646;52.450;13.326;2022-09-12T12:59:58;1.00;;;0.90;;
3267;SDS011;1646;52.450;13.326;2022-09-12T13:05:00;1.40;;;1.10;;
3267;SDS011;1646;52.450;13.326;2022-09-12T13:10:02;1.50;;;1.10;;
3267;SDS011;1646;52.450;13.326;2022-09-12T13:15:05;1.87;;;1.03;;
3267;SDS011;1646;52.450;13.326;2022-09-12T13:20:43;1.20;;;0.93;;
3267;SDS011;1646;52.450;13.326;2022-09-12T13:25:50;2.33;;;1.07;;
3267;SDS011;1646;52.450;13.326;2022-09-12T13:30:53;2.20;;;1.17;;
3267;SDS011;1646;52.450;13.326;2022-09-12T13:36:05;1.13;;;1.03;;
3267;SDS011;1646;52.450;13.326;2022-09-12T13:41:21;1.30;;;1.00;;
3267;SDS011;1646;52.450;13.326;2022-09-12T13:46:30;1.27;;;0.90;;
3267;SDS011;1646;52.450;13.326;2022-09-12T13:51:31;5.23;;;1.93;;
3267;SDS011;1646;52.450;13.326;2022-09-12T13:56:30;1.97;;;1.10;;
3267;SDS011;1646;52.450;13.326;2022-09-12T14:01:36;3.60;;;1.20;;
3267;SDS011;1646;52.450;13.326;2022-09-12T14:06:37;2.00;;;1.20;;
3267;SDS011;1646;52.450;13.326;2022-09-12T14:11:44;1.03;;;0.93;;
3267;SDS011;1646;52.450;13.326;2022-09-12T14:16:42;1.60;;;1.10;;
3267;SDS011;1646;52.450;13.326;2022-09-12T14:21:42;2.03;;;0.93;;
3267;SDS011;1646;52.450;13.326;2022-09-12T14:26:42;3.17;;;1.10;;
3267;SDS011;1646;52.450;13.326;2022-09-12T14:31:41;2.10;;;1.17;;
3267;SDS011;1646;52.450;13.326;2022-09-12T14:36:45;1.50;;;1.10;;
3267;SDS011;1646;52.450;13.326;2022-09-12T14:41:45;2.30;;;1.30;;
3267;SDS011;1646;52.450;13.326;2022-09-12T14:46:44;1.30;;;1.20;;
3267;SDS011;1646;52.450;13.326;2022-09-12T14:51:47;1.10;;;1.00;;
3267;SDS011;1646;52.450;13.326;2022-09-12T14:56:52;4.00;;;1.20;;
3267;SDS011;1646;52.450;13.326;2022-09-12T15:07:27;1.60;;;1.50;;
3267;SDS011;1646;52.450;13.326;2022-09-12T15:12:28;1.40;;;1.03;;
3267;SDS011;1646;52.450;13.326;2022-09-12T15:17:27;2.40;;;1.20;;
3267;SDS011;1646;52.450;13.326;2022-09-12T15:22:26;4.20;;;1.20;;
3267;SDS011;1646;52.450;13.326;2022-09-12T15:27:24;4.83;;;1.63;;
3267;SDS011;1646;52.450;13.326;2022-09-12T15:32:23;3.57;;;1.30;;
3267;SDS011;1646;52.450;13.326;2022-09-12T15:37:22;2.40;;;1.30;;
3267;SDS011;1646;52.450;13.326;2022-09-12T15:42:23;2.10;;;1.33;;
3267;SDS011;1646;52.450;13.326;2022-09-12T15:47:24;1.23;;;1.13;;
3267;SDS011;1646;52.450;13.326;2022-09-12T15:52:23;2.40;;;1.40;;
3267;SDS011;1646;52.450;13.326;2022-09-12T15:57:22;1.70;;;1.30;;
3267;SDS011;1646;52.450;13.326;2022-09-12T16:02:20;1.50;;;1.20;;
3267;SDS011;1646;52.450;13.326;2022-09-12T16:07:18;1.40;;;1.23;;
3267;SDS011;1646;52.450;13.326;2022-09-12T16:12:16;1.57;;;1.27;;
3267;SDS011;1646;52.450;13.326;2022-09-12T16:17:16;2.20;;;1.30;;
3267;SDS011;1646;52.450;13.326;2022-09-12T16:22:14;1.43;;;1.00;;
3267;SDS011;1646;52.450;13.326;2022-09-12T16:27:12;1.60;;;1.37;;
3267;SDS011;1646;52.450;13.326;2022-09-12T16:32:10;2.50;;;1.23;;
3267;SDS011;1646;52.450;13.326;2022-09-12T16:37:09;1.50;;;1.07;;
3267;SDS011;1646;52.450;13.326;2022-09-12T16:42:07;1.80;;;1.30;;
3267;SDS011;1646;52.450;13.326;2022-09-12T16:47:05;2.07;;;1.43;;
3267;SDS011;1646;52.450;13.326;2022-09-12T16:52:03;4.40;;;1.40;;
3267;SDS011;1646;52.450;13.326;2022-09-12T16:57:03;1.60;;;1.37;;
3267;SDS011;1646;52.450;13.326;2022-09-12T17:02:01;2.40;;;1.90;;
3267;SDS011;1646;52.450;13.326;2022-09-12T17:06:59;4.20;;;1.50;;
3267;SDS011;1646;52.450;13.326;2022-09-12T17:11:58;3.77;;;1.77;;
3267;SDS011;1646;52.450;13.326;2022-09-12T17:16:57;3.00;;;1.73;;
3267;SDS011;1646;52.450;13.326;2022-09-12T17:21:55;2.13;;;1.60;;
3267;SDS011;1646;52.450;13.326;2022-09-12T17:26:54;3.30;;;1.40;;
3267;SDS011;1646;52.450;13.326;2022-09-12T17:31:52;2.50;;;1.77;;
3267;SDS011;1646;52.450;13.326;2022-09-12T17:36:52;3.60;;;2.30;;
3267;SDS011;1646;52.450;13.326;2022-09-12T17:41:50;4.27;;;1.57;;
3267;SDS011;1646;52.450;13.326;2022-09-12T17:46:50;3.23;;;1.83;;
3267;SDS011;1646;52.450;13.326;2022-09-12T17:51:48;4.57;;;1.90;;
3267;SDS011;1646;52.450;13.326;2022-09-12T17:56:47;5.83;;;2.10;;
3267;SDS011;1646;52.450;13.326;2022-09-12T18:01:47;5.63;;;2.77;;
3267;SDS011;1646;52.450;13.326;2022-09-12T18:07:02;3.93;;;2.20;;
3267;SDS011;1646;52.450;13.326;2022-09-12T18:12:03;4.67;;;2.70;;
3267;SDS011;1646;52.450;13.326;2022-09-12T18:17:01;5.50;;;2.20;;
3267;SDS011;1646;52.450;13.326;2022-09-12T18:21:59;3.50;;;2.70;;
3267;SDS011;1646;52.450;13.326;2022-09-12T18:26:58;4.03;;;3.10;;
3267;SDS011;1646;52.450;13.326;2022-09-12T18:31:58;4.20;;;2.57;;
3267;SDS011;1646;52.450;13.326;2022-09-12T18:36:56;2.70;;;2.10;;
3267;SDS011;1646;52.450;13.326;2022-09-12T18:41:54;4.07;;;2.53;;
3267;SDS011;1646;52.450;13.326;2022-09-12T18:46:52;3.50;;;2.47;;
3267;SDS011;1646;52.450;13.326;2022-09-12T18:51:53;3.43;;;2.80;;
3267;SDS011;1646;52.450;13.326;2022-09-12T18:56:51;4.13;;;2.57;;
3267;SDS011;1646;52.450;13.326;2022-09-12T19:01:52;6.00;;;3.33;;
3267;SDS011;1646;52.450;13.326;2022-09-12T19:06:51;4.63;;;2.80;;
3267;SDS011;1646;52.450;13.326;2022-09-12T19:11:50;4.27;;;2.80;;
3267;SDS011;1646;52.450;13.326;2022-09-12T19:16:48;4.20;;;2.63;;
3267;SDS011;1646;52.450;13.326;2022-09-12T19:21:47;3.43;;;3.00;;
3267;SDS011;1646;52.450;13.326;2022-09-12T19:26:47;4.83;;;2.90;;
3267;SDS011;1646;52.450;13.326;2022-09-12T19:31:45;3.90;;;2.80;;
3267;SDS011;1646;52.450;13.326;2022-09-12T19:36:43;4.93;;;3.33;;
3267;SDS011;1646;52.450;13.326;2022-09-12T19:41:43;4.43;;;3.70;;
3267;SDS011;1646;52.450;13.326;2022-09-12T19:46:42;4.77;;;3.53;;
3267;SDS011;1646;52.450;13.326;2022-09-12T19:51:43;4.50;;;3.30;;
3267;SDS011;1646;52.450;13.326;2022-09-12T19:56:41;5.83;;;4.50;;
3267;SDS011;1646;52.450;13.326;2022-09-12T20:01:40;7.00;;;4.07;;
3267;SDS011;1646;52.450;13.326;2022-09-12T20:06:39;5.40;;;4.00;;
3267;SDS011;1646;52.450;13.326;2022-09-12T20:11:37;4.70;;;4.13;;
3267;SDS011;1646;52.450;13.326;2022-09-12T20:16:35;7.03;;;4.77;;
3267;SDS011;1646;52.450;13.326;2022-09-12T20:21:34;7.10;;;4.90;;
3267;SDS011;1646;52.450;13.326;2022-09-12T20:26:34;6.10;;;4.57;;
3267;SDS011;1646;52.450;13.326;2022-09-12T20:31:33;6.03;;;4.47;;
3267;SDS011;1646;52.450;13.326;2022-09-12T20:36:32;10.07;;;4.67;;
3267;SDS011;1646;52.450;13.326;2022-09-12T20:41:32;5.43;;;4.33;;
3267;SDS011;1646;52.450;13.326;2022-09-12T20:46:31;7.60;;;4.77;;
3267;SDS011;1646;52.450;13.326;2022-09-12T20:51:30;6.23;;;4.83;;
3267;SDS011;1646;52.450;13.326;2022-09-12T20:56:29;6.20;;;4.50;;
3267;SDS011;1646;52.450;13.326;2022-09-12T21:01:30;11.30;;;4.50;;
3267;SDS011;1646;52.450;13.326;2022-09-12T21:06:29;6.50;;;5.47;;
3267;SDS011;1646;52.450;13.326;2022-09-12T21:11:27;6.20;;;4.83;;
3267;SDS011;1646;52.450;13.326;2022-09-12T21:16:26;6.23;;;4.50;;
3267;SDS011;1646;52.450;13.326;2022-09-12T21:21:25;6.77;;;5.33;;
3267;SDS011;1646;52.450;13.326;2022-09-12T21:26:23;5.67;;;4.83;;
3267;SDS011;1646;52.450;13.326;2022-09-12T21:31:21;7.33;;;5.03;;
3267;SDS011;1646;52.450;13.326;2022-09-12T21:36:20;14.70;;;5.03;;
3267;SDS011;1646;52.450;13.326;2022-09-12T21:41:19;8.60;;;5.20;;
3267;SDS011;1646;52.450;13.326;2022-09-12T21:46:17;9.37;;;5.00;;
3267;SDS011;1646;52.450;13.326;2022-09-12T21:51:15;4.50;;;4.00;;
3267;SDS011;1646;52.450;13.326;2022-09-12T21:56:14;4.93;;;4.37;;
3267;SDS011;1646;52.450;13.326;2022-09-12T22:01:13;5.97;;;4.10;;
3267;SDS011;1646;52.450;13.326;2022-09-12T22:06:11;6.20;;;4.33;;
3267;SDS011;1646;52.450;13.326;2022-09-12T22:11:12;6.60;;;5.17;;
3267;SDS011;1646;52.450;13.326;2022-09-12T22:16:10;4.70;;;3.87;;
3267;SDS011;1646;52.450;13.326;2022-09-12T22:21:10;6.00;;;3.73;;
3267;SDS011;1646;52.450;13.326;2022-09-12T22:26:10;6.93;;;3.90;;
3267;SDS011;1646;52.450;13.326;2022-09-12T22:31:09;11.17;;;4.40;;
3267;SDS011;1646;52.450;13.326;2022-09-12T22:36:09;4.33;;;3.60;;
3267;SDS011;1646;52.450;13.326;2022-09-12T22:41:08;6.30;;;3.90;;
3267;SDS011;1646;52.450;13.326;2022-09-12T22:46:07;5.10;;;3.67;;
3267;SDS011;1646;52.450;13.326;2022-09-12T22:51:07;4.10;;;3.70;;
3267;SDS011;1646;52.450;13.326;2022-09-12T22:56:07;3.63;;;3.30;;
3267;SDS011;1646;52.450;13.326;2022-09-12T23:01:06;5.63;;;3.97;;
3267;SDS011;1646;52.450;13.326;2022-09-12T23:06:05;5.50;;;3.93;;
3267;SDS011;1646;52.450;13.326;2022-09-12T23:11:07;4.83;;;4.23;;
3267;SDS011;1646;52.450;13.326;2022-09-12T23:16:06;6.27;;;4.73;;
3267;SDS011;1646;52.450;13.326;2022-09-12T23:21:07;3.67;;;3.30;;
3267;SDS011;1646;52.450;13.326;2022-09-12T23:26:08;3.57;;;3.27;;
3267;SDS011;1646;52.450;13.326;2022-09-12T23:31:07;6.50;;;3.47;;
3267;SDS011;1646;52.450;13.326;2022-09-12T23:36:06;4.87;;;3.50;;
3267;SDS011;1646;52.450;13.326;2022-09-12T23:41:09;5.90;;;3.53;;
3267;SDS011;1646;52.450;13.326;2022-09-12T23:46:08;4.50;;;3.80;;
3267;SDS011;1646;52.450;13.326;2022-09-12T23:51:07;7.33;;;4.10;;
3267;SDS011;1646;52.450;13.326;2022-09-12T23:56:05;3.23;;;3.03;;
